Glory Ace — 3FAF9 — position and weather

sailwx.info

Track history (hours):
 
Tides and Currents Weather Stations Pressure Air Temp Water Temp Dewpoint Dewpoint Depression Visibility Wind Speed Wind Dir Waves Ship Positions

Glory Ace

Last reported at 2014-Oct-19 20:26 UTC. Time now 2014-Oct-21 05:25 UTC.
Position S 33°08' E 151°44'.

Length 190 m; draft 6.2 m.

Type: Cargo ship. MMSI: 357130000.

Date/timePositionNaut miles runAvg speedWind from/ knotsBaromVisibWave heightAir tempDewpointWater temp
2014-Oct-19 20:26S 33°08' E 151°44'0 0.3
2014-Oct-19 19:29S 33°08' E 151°44'0 0.0
2014-Oct-19 18:32S 33°08' E 151°44'0 0.0
2014-Oct-19 17:32S 33°08' E 151°44'0 0.0
2014-Oct-19 16:32S 33°08' E 151°44'0 0.0
2014-Oct-19 14:32S 33°08' E 151°44'0 0.0
2014-Oct-19 13:32S 33°08' E 151°44'0 0.0
2014-Oct-19 12:26S 33°08' E 151°44'0 0.0
2014-Oct-19 11:32S 33°08' E 151°44'0 0.0
2014-Oct-19 07:26S 33°08' E 151°44'0 0.0
2014-Oct-19 01:20S 33°08' E 151°44'0 0.0
2014-Oct-19 00:20S 33°08' E 151°44'0 0.0
2014-Oct-18 21:32S 33°08' E 151°44'0 0.0
2014-Oct-18 20:32S 33°08' E 151°44'8 0.5
2014-Oct-18 06:17S 33°04' E 151°51'912.1
2014-Oct-18 05:33S 32°58' E 151°60'1312.6
2014-Oct-18 04:33S 32°51' E 152°12'1212.3
2014-Oct-18 03:34S 32°42' E 152°22'1212.3
2014-Oct-18 02:33S 32°33' E 152°33'  
2014-Oct-15 21:15S 32°05' E 152°46'3 0.5
2014-Oct-15 16:30S 32°07' E 152°47'2 1.1
2014-Oct-15 14:19S 32°05' E 152°49'22610.8
2014-Oct-14 17:20S 28°24' E 153°46'1113.8
2014-Oct-14 16:33S 28°13' E 153°45'9 9.2
2014-Oct-14 15:33S 28°22' E 153°45'5 4.5
2014-Oct-14 14:28S 28°17' E 153°45'1213.5
2014-Oct-14 13:33S 28°05' E 153°44'9 8.9
2014-Oct-14 12:33S 27°56' E 153°42'10 9.5
2014-Oct-14 11:33S 28°06' E 153°44'1312.8
2014-Oct-14 10:33S 27°53' E 153°43'1313.4
2014-Oct-14 09:34S 27°40' E 153°41'1413.5
2014-Oct-14 08:33S 27°26' E 153°41'1413.6
2014-Oct-14 07:33S 27°13' E 153°41'1413.6
2014-Oct-14 06:30S 26°58' E 153°41'  
Track history (hours):
 
Tides and Currents Weather Stations Pressure Air Temp Water Temp Dewpoint Dewpoint Depression Visibility Wind Speed Wind Dir Waves Ship Positions

Glory Ace

Last reported at 2014-Oct-19 20:26 UTC. Time now 2014-Oct-21 05:25 UTC.
Position S 33°08' E 151°44'.

Length 190 m; draft 6.2 m.

Type: Cargo ship. MMSI: 357130000.

Date/timePositionNaut miles runAvg speedWind from/ knotsBaromVisibWave heightAir tempDewpointWater temp
2014-Oct-19 20:26S 33°08' E 151°44'0 0.3
2014-Oct-19 19:29S 33°08' E 151°44'0 0.0
2014-Oct-19 18:32S 33°08' E 151°44'0 0.0
2014-Oct-19 17:32S 33°08' E 151°44'0 0.0
2014-Oct-19 16:32S 33°08' E 151°44'0 0.0
2014-Oct-19 14:32S 33°08' E 151°44'0 0.0
2014-Oct-19 13:32S 33°08' E 151°44'0 0.0
2014-Oct-19 12:26S 33°08' E 151°44'0 0.0
2014-Oct-19 11:32S 33°08' E 151°44'0 0.0
2014-Oct-19 07:26S 33°08' E 151°44'0 0.0
2014-Oct-19 01:20S 33°08' E 151°44'0 0.0
2014-Oct-19 00:20S 33°08' E 151°44'0 0.0
2014-Oct-18 21:32S 33°08' E 151°44'0 0.0
2014-Oct-18 20:32S 33°08' E 151°44'8 0.5
2014-Oct-18 06:17S 33°04' E 151°51'912.1
2014-Oct-18 05:33S 32°58' E 151°60'1312.6
2014-Oct-18 04:33S 32°51' E 152°12'1212.3
2014-Oct-18 03:34S 32°42' E 152°22'1212.3
2014-Oct-18 02:33S 32°33' E 152°33'  
2014-Oct-15 21:15S 32°05' E 152°46'3 0.5
2014-Oct-15 16:30S 32°07' E 152°47'2 1.1
2014-Oct-15 14:19S 32°05' E 152°49'22610.8
2014-Oct-14 17:20S 28°24' E 153°46'1113.8
2014-Oct-14 16:33S 28°13' E 153°45'9 9.2
2014-Oct-14 15:33S 28°22' E 153°45'5 4.5
2014-Oct-14 14:28S 28°17' E 153°45'1213.5
2014-Oct-14 13:33S 28°05' E 153°44'9 8.9
2014-Oct-14 12:33S 27°56' E 153°42'10 9.5
2014-Oct-14 11:33S 28°06' E 153°44'1312.8
2014-Oct-14 10:33S 27°53' E 153°43'1313.4
2014-Oct-14 09:34S 27°40' E 153°41'1413.5
2014-Oct-14 08:33S 27°26' E 153°41'1413.6
2014-Oct-14 07:33S 27°13' E 153°41'1413.6
2014-Oct-14 06:30S 26°58' E 153°41'  

Dump ship's entire track history